sensor_id;sensor_type;location;lat;lon;timestamp;temperature;humidity
10143;DHT22;5112;54.088;13.446;2024-03-06T00:01:21;4.30;99.90
10143;DHT22;5112;54.088;13.446;2024-03-06T00:11:24;4.30;99.90
10143;DHT22;5112;54.088;13.446;2024-03-06T00:21:26;4.30;99.90
10143;DHT22;5112;54.088;13.446;2024-03-06T00:31:30;4.20;99.90
10143;DHT22;5112;54.088;13.446;2024-03-06T00:41:32;4.30;99.90
10143;DHT22;5112;54.088;13.446;2024-03-06T00:51:36;4.30;99.90
10143;DHT22;5112;54.088;13.446;2024-03-06T01:01:37;4.30;99.90
10143;DHT22;5112;54.088;13.446;2024-03-06T01:11:40;4.40;99.90
10143;DHT22;5112;54.088;13.446;2024-03-06T01:21:42;4.30;99.90
10143;DHT22;5112;54.088;13.446;2024-03-06T01:31:45;4.30;99.90
10143;DHT22;5112;54.088;13.446;2024-03-06T01:41:47;4.30;99.90
10143;DHT22;5112;54.088;13.446;2024-03-06T01:51:53;4.20;99.90
10143;DHT22;5112;54.088;13.446;2024-03-06T02:01:55;4.20;99.90
10143;DHT22;5112;54.088;13.446;2024-03-06T02:11:58;4.10;99.90
10143;DHT22;5112;54.088;13.446;2024-03-06T02:22:02;4.10;99.90
10143;DHT22;5112;54.088;13.446;2024-03-06T02:32:03;4.20;99.90
10143;DHT22;5112;54.088;13.446;2024-03-06T02:42:06;4.10;99.90
10143;DHT22;5112;54.088;13.446;2024-03-06T02:52:08;4.20;99.90
10143;DHT22;5112;54.088;13.446;2024-03-06T03:02:11;4.20;99.90
10143;DHT22;5112;54.088;13.446;2024-03-06T03:12:13;4.30;99.90
10143;DHT22;5112;54.088;13.446;2024-03-06T03:22:16;4.30;99.90
10143;DHT22;5112;54.088;13.446;2024-03-06T03:32:18;4.20;99.90
10143;DHT22;5112;54.088;13.446;2024-03-06T03:42:20;4.30;99.90
10143;DHT22;5112;54.088;13.446;2024-03-06T03:52:22;4.20;99.90
10143;DHT22;5112;54.088;13.446;2024-03-06T04:02:25;4.20;99.90
10143;DHT22;5112;54.088;13.446;2024-03-06T04:12:26;4.30;99.90
10143;DHT22;5112;54.088;13.446;2024-03-06T04:22:30;4.20;99.90
10143;DHT22;5112;54.088;13.446;2024-03-06T04:32:31;4.00;99.90
10143;DHT22;5112;54.088;13.446;2024-03-06T04:42:34;3.70;99.90
10143;DHT22;5112;54.088;13.446;2024-03-06T04:52:37;3.30;99.90
10143;DHT22;5112;54.088;13.446;2024-03-06T05:02:40;3.00;99.90
10143;DHT22;5112;54.088;13.446;2024-03-06T05:12:42;2.80;99.90
10143;DHT22;5112;54.088;13.446;2024-03-06T05:22:45;2.60;99.90
10143;DHT22;5112;54.088;13.446;2024-03-06T05:32:46;2.40;99.90
10143;DHT22;5112;54.088;13.446;2024-03-06T05:42:49;2.30;99.90
10143;DHT22;5112;54.088;13.446;2024-03-06T05:52:51;2.00;99.90
10143;DHT22;5112;54.088;13.446;2024-03-06T06:02:54;2.00;99.90
10143;DHT22;5112;54.088;13.446;2024-03-06T06:12:56;2.00;99.90
10143;DHT22;5112;54.088;13.446;2024-03-06T06:22:59;1.90;99.90
10143;DHT22;5112;54.088;13.446;2024-03-06T06:33:01;1.90;99.90
10143;DHT22;5112;54.088;13.446;2024-03-06T06:43:05;2.00;99.90
10143;DHT22;5112;54.088;13.446;2024-03-06T06:53:06;2.20;99.90
10143;DHT22;5112;54.088;13.446;2024-03-06T07:03:09;2.40;99.90
10143;DHT22;5112;54.088;13.446;2024-03-06T07:13:11;2.70;99.90
10143;DHT22;5112;54.088;13.446;2024-03-06T07:23:14;3.30;99.90
10143;DHT22;5112;54.088;13.446;2024-03-06T07:33:16;3.80;99.90
10143;DHT22;5112;54.088;13.446;2024-03-06T07:43:18;4.40;99.90
10143;DHT22;5112;54.088;13.446;2024-03-06T07:53:20;4.90;99.90
10143;DHT22;5112;54.088;13.446;2024-03-06T08:03:23;5.30;99.90
10143;DHT22;5112;54.088;13.446;2024-03-06T08:13:25;5.60;99.90
10143;DHT22;5112;54.088;13.446;2024-03-06T08:23:29;6.10;99.90
10143;DHT22;5112;54.088;13.446;2024-03-06T08:33:30;6.10;99.90
10143;DHT22;5112;54.088;13.446;2024-03-06T08:43:33;6.20;99.90
10143;DHT22;5112;54.088;13.446;2024-03-06T08:53:35;6.20;99.90
10143;DHT22;5112;54.088;13.446;2024-03-06T09:03:38;6.30;99.90
10143;DHT22;5112;54.088;13.446;2024-03-06T09:13:40;6.30;99.90
10143;DHT22;5112;54.088;13.446;2024-03-06T09:23:43;6.50;99.90
10143;DHT22;5112;54.088;13.446;2024-03-06T09:33:44;6.90;99.90
10143;DHT22;5112;54.088;13.446;2024-03-06T09:43:48;7.80;99.90
10143;DHT22;5112;54.088;13.446;2024-03-06T09:53:50;7.80;99.90
10143;DHT22;5112;54.088;13.446;2024-03-06T10:03:54;7.70;99.90
10143;DHT22;5112;54.088;13.446;2024-03-06T10:13:56;7.30;99.90
10143;DHT22;5112;54.088;13.446;2024-03-06T10:24:00;7.40;99.90
10143;DHT22;5112;54.088;13.446;2024-03-06T10:34:01;8.10;99.90
10143;DHT22;5112;54.088;13.446;2024-03-06T10:44:05;8.40;99.90
10143;DHT22;5112;54.088;13.446;2024-03-06T10:54:08;7.90;99.90
10143;DHT22;5112;54.088;13.446;2024-03-06T11:04:11;7.80;99.90
10143;DHT22;5112;54.088;13.446;2024-03-06T11:14:15;7.70;99.90
10143;DHT22;5112;54.088;13.446;2024-03-06T11:24:22;7.80;99.90
10143;DHT22;5112;54.088;13.446;2024-03-06T11:34:24;7.40;99.90
10143;DHT22;5112;54.088;13.446;2024-03-06T11:44:27;7.40;99.90
10143;DHT22;5112;54.088;13.446;2024-03-06T11:54:30;7.30;99.90
10143;DHT22;5112;54.088;13.446;2024-03-06T12:04:34;7.30;99.90
10143;DHT22;5112;54.088;13.446;2024-03-06T12:14:38;7.30;99.90
10143;DHT22;5112;54.088;13.446;2024-03-06T12:24:41;7.30;99.90
10143;DHT22;5112;54.088;13.446;2024-03-06T12:34:43;7.00;99.90
10143;DHT22;5112;54.088;13.446;2024-03-06T12:44:46;7.00;99.90
10143;DHT22;5112;54.088;13.446;2024-03-06T12:54:48;7.10;99.90
10143;DHT22;5112;54.088;13.446;2024-03-06T13:04:52;7.00;99.90
10143;DHT22;5112;54.088;13.446;2024-03-06T13:14:53;6.90;99.90
10143;DHT22;5112;54.088;13.446;2024-03-06T13:24:56;6.80;99.90
10143;DHT22;5112;54.088;13.446;2024-03-06T13:34:58;7.00;99.90
10143;DHT22;5112;54.088;13.446;2024-03-06T13:45:01;6.80;99.90
10143;DHT22;5112;54.088;13.446;2024-03-06T13:55:03;6.70;99.90
10143;DHT22;5112;54.088;13.446;2024-03-06T14:05:07;6.60;99.90
10143;DHT22;5112;54.088;13.446;2024-03-06T14:15:09;6.50;99.90
10143;DHT22;5112;54.088;13.446;2024-03-06T14:25:14;6.30;99.90
10143;DHT22;5112;54.088;13.446;2024-03-06T14:35:16;6.20;99.90
10143;DHT22;5112;54.088;13.446;2024-03-06T14:45:19;6.10;99.90
10143;DHT22;5112;54.088;13.446;2024-03-06T14:55:21;6.10;99.90
10143;DHT22;5112;54.088;13.446;2024-03-06T15:05:24;5.90;99.90
10143;DHT22;5112;54.088;13.446;2024-03-06T15:15:25;5.90;99.90
10143;DHT22;5112;54.088;13.446;2024-03-06T15:25:28;5.90;99.90
10143;DHT22;5112;54.088;13.446;2024-03-06T15:35:30;5.80;99.90
10143;DHT22;5112;54.088;13.446;2024-03-06T15:45:33;5.80;99.90
10143;DHT22;5112;54.088;13.446;2024-03-06T15:55:34;5.70;99.90
10143;DHT22;5112;54.088;13.446;2024-03-06T16:05:38;5.70;99.90
10143;DHT22;5112;54.088;13.446;2024-03-06T16:15:40;5.70;99.90
10143;DHT22;5112;54.088;13.446;2024-03-06T16:25:43;5.60;99.90
10143;DHT22;5112;54.088;13.446;2024-03-06T16:35:44;5.60;99.90
10143;DHT22;5112;54.088;13.446;2024-03-06T16:45:47;5.60;99.90
10143;DHT22;5112;54.088;13.446;2024-03-06T16:55:49;5.50;99.90
10143;DHT22;5112;54.088;13.446;2024-03-06T17:05:52;5.50;99.90
10143;DHT22;5112;54.088;13.446;2024-03-06T17:15:53;5.50;99.90
10143;DHT22;5112;54.088;13.446;2024-03-06T17:25:57;5.50;99.90
10143;DHT22;5112;54.088;13.446;2024-03-06T17:35:59;5.40;99.90
10143;DHT22;5112;54.088;13.446;2024-03-06T17:46:02;5.20;99.90
10143;DHT22;5112;54.088;13.446;2024-03-06T17:56:04;5.40;99.90
10143;DHT22;5112;54.088;13.446;2024-03-06T18:06:07;5.40;99.90
10143;DHT22;5112;54.088;13.446;2024-03-06T18:16:09;5.30;99.90
10143;DHT22;5112;54.088;13.446;2024-03-06T18:26:13;5.30;99.90
10143;DHT22;5112;54.088;13.446;2024-03-06T18:36:14;5.20;99.90
10143;DHT22;5112;54.088;13.446;2024-03-06T18:46:17;5.20;99.90
10143;DHT22;5112;54.088;13.446;2024-03-06T18:56:19;5.00;99.90
10143;DHT22;5112;54.088;13.446;2024-03-06T19:06:22;4.90;99.90
10143;DHT22;5112;54.088;13.446;2024-03-06T19:16:24;5.10;99.90
10143;DHT22;5112;54.088;13.446;2024-03-06T19:26:27;5.00;99.90
10143;DHT22;5112;54.088;13.446;2024-03-06T19:36:28;4.90;99.90
10143;DHT22;5112;54.088;13.446;2024-03-06T19:46:31;5.00;99.90
10143;DHT22;5112;54.088;13.446;2024-03-06T19:56:33;4.90;99.90
10143;DHT22;5112;54.088;13.446;2024-03-06T20:06:36;4.80;99.90
10143;DHT22;5112;54.088;13.446;2024-03-06T20:16:38;4.80;99.90
10143;DHT22;5112;54.088;13.446;2024-03-06T20:26:41;4.80;99.90
10143;DHT22;5112;54.088;13.446;2024-03-06T20:36:43;4.90;99.90
10143;DHT22;5112;54.088;13.446;2024-03-06T20:46:45;4.70;99.90
10143;DHT22;5112;54.088;13.446;2024-03-06T20:56:47;4.70;99.90
10143;DHT22;5112;54.088;13.446;2024-03-06T21:06:50;4.50;99.90
10143;DHT22;5112;54.088;13.446;2024-03-06T21:16:52;4.50;99.90
10143;DHT22;5112;54.088;13.446;2024-03-06T21:26:56;4.50;99.90
10143;DHT22;5112;54.088;13.446;2024-03-06T21:36:58;4.50;99.90
10143;DHT22;5112;54.088;13.446;2024-03-06T21:47:01;4.50;99.90
10143;DHT22;5112;54.088;13.446;2024-03-06T21:57:03;4.50;99.90
10143;DHT22;5112;54.088;13.446;2024-03-06T22:07:08;4.60;99.90
10143;DHT22;5112;54.088;13.446;2024-03-06T22:17:10;4.60;99.90
10143;DHT22;5112;54.088;13.446;2024-03-06T22:27:13;4.60;99.90
10143;DHT22;5112;54.088;13.446;2024-03-06T22:37:15;4.50;99.90
10143;DHT22;5112;54.088;13.446;2024-03-06T22:47:19;4.60;99.90
10143;DHT22;5112;54.088;13.446;2024-03-06T22:57:22;4.60;99.90
10143;DHT22;5112;54.088;13.446;2024-03-06T23:07:24;4.60;99.90
10143;DHT22;5112;54.088;13.446;2024-03-06T23:17:26;4.70;99.90
10143;DHT22;5112;54.088;13.446;2024-03-06T23:27:29;4.70;99.90
10143;DHT22;5112;54.088;13.446;2024-03-06T23:37:31;4.70;99.90
10143;DHT22;5112;54.088;13.446;2024-03-06T23:47:34;4.60;99.90
10143;DHT22;5112;54.088;13.446;2024-03-06T23:57:36;4.90;99.90
